createdAt,value
2023-02-05T00:02:17.809Z,6.03
2023-02-05T00:04:50.647Z,6.25
2023-02-05T00:07:22.784Z,6.12
2023-02-05T00:09:55.258Z,6.65
2023-02-05T00:12:27.236Z,6.35
2023-02-05T00:14:59.193Z,6.15
2023-02-05T00:17:31.648Z,6.53
2023-02-05T00:20:05.048Z,5.85
2023-02-05T00:22:37.158Z,6.57
2023-02-05T00:25:09.518Z,6.62
2023-02-05T00:27:42.307Z,7.25
2023-02-05T00:30:15.036Z,7.35
2023-02-05T00:32:47.769Z,6.40
2023-02-05T00:35:19.803Z,5.87
2023-02-05T00:37:52.067Z,6.17
2023-02-05T00:40:24.080Z,6.00
2023-02-05T00:42:56.140Z,5.85
2023-02-05T00:45:29.769Z,5.53
2023-02-05T00:48:03.216Z,5.67
2023-02-05T00:50:35.872Z,5.78
2023-02-05T00:53:08.939Z,5.85
2023-02-05T00:55:41.101Z,5.28
2023-02-05T00:58:13.684Z,5.10
2023-02-05T01:00:46.061Z,6.28
2023-02-05T01:03:18.816Z,4.60
2023-02-05T01:05:51.933Z,4.03
2023-02-05T01:08:24.364Z,4.62
2023-02-05T01:10:57.054Z,4.80
2023-02-05T01:13:29.227Z,5.10
2023-02-05T01:16:01.351Z,5.17
2023-02-05T01:18:33.640Z,5.58
2023-02-05T01:21:05.789Z,4.78
2023-02-05T01:23:38.278Z,5.30
2023-02-05T01:26:10.198Z,7.45
2023-02-05T01:28:42.131Z,5.83
2023-02-05T01:31:14.262Z,5.00
2023-02-05T01:33:46.514Z,5.10
2023-02-05T01:36:18.650Z,4.85
2023-02-05T01:38:50.774Z,5.20
2023-02-05T01:41:22.975Z,5.53
2023-02-05T01:44:14.242Z,4.87
2023-02-05T01:46:47.834Z,4.37
2023-02-05T01:49:34.676Z,4.90
2023-02-05T01:52:09.558Z,4.65
2023-02-05T01:54:44.706Z,4.62
2023-02-05T01:57:22.184Z,4.75
2023-02-05T01:59:54.374Z,4.85
2023-02-05T02:02:28.965Z,5.22
2023-02-05T02:05:04.351Z,4.37
2023-02-05T02:07:37.305Z,3.92
2023-02-05T02:10:12.072Z,4.72
2023-02-05T02:12:46.874Z,4.35
2023-02-05T02:15:25.787Z,4.40
2023-02-05T02:18:21.871Z,5.00
2023-02-05T02:21:05.517Z,4.58
2023-02-05T02:24:10.527Z,4.12
2023-02-05T02:27:01.756Z,4.83
2023-02-05T02:29:54.449Z,4.42
2023-02-05T02:32:31.990Z,4.60
2023-02-05T02:35:26.823Z,4.75
2023-02-05T02:38:30.511Z,4.78
2023-02-05T02:41:06.435Z,5.10
2023-02-05T02:43:56.414Z,4.42
2023-02-05T02:46:40.564Z,4.92
2023-02-05T02:49:15.671Z,5.05
2023-02-05T02:51:51.004Z,4.85
2023-02-05T02:54:24.249Z,4.72
2023-02-05T02:56:58.518Z,4.33
2023-02-05T02:59:34.059Z,5.35
2023-02-05T03:02:08.951Z,5.28
2023-02-05T03:04:45.540Z,6.65
2023-02-05T03:07:23.757Z,4.50
2023-02-05T03:09:58.978Z,4.80
2023-02-05T03:12:31.948Z,4.87
2023-02-05T03:15:04.228Z,4.92
2023-02-05T03:17:39.460Z,3.87
2023-02-05T03:20:23.138Z,5.58
2023-02-05T03:22:57.265Z,5.20
2023-02-05T03:25:31.748Z,5.05
2023-02-05T03:28:05.242Z,5.47
2023-02-05T03:33:32.253Z,4.70
2023-02-05T03:36:19.412Z,5.55
2023-02-05T03:39:03.295Z,4.53
2023-02-05T03:41:58.819Z,4.60
2023-02-05T03:45:00.663Z,4.83
2023-02-05T03:47:43.442Z,4.62
2023-02-05T03:50:21.178Z,5.10
2023-02-05T03:53:12.226Z,4.67
2023-02-05T03:55:50.134Z,4.92
2023-02-05T03:58:28.122Z,5.12
2023-02-05T04:01:01.738Z,3.92
2023-02-05T04:06:06.337Z,3.90
2023-02-05T04:08:43.044Z,3.98
2023-02-05T04:11:15.764Z,4.78
2023-02-05T04:13:49.435Z,4.60
2023-02-05T04:16:21.895Z,4.85
2023-02-05T04:18:54.023Z,3.80
2023-02-05T04:21:26.253Z,4.90
2023-02-05T04:23:58.453Z,4.70
2023-02-05T04:26:30.720Z,4.53
2023-02-05T04:29:04.338Z,4.35
2023-02-05T04:31:38.990Z,4.85
2023-02-05T04:34:11.247Z,4.80
2023-02-05T04:36:44.043Z,4.40
2023-02-05T04:39:15.930Z,3.72
2023-02-05T04:41:48.163Z,3.87
2023-02-05T04:44:20.229Z,3.25
2023-02-05T04:46:52.261Z,3.98
2023-02-05T04:49:24.555Z,3.95
2023-02-05T04:51:57.243Z,3.27
2023-02-05T04:54:29.276Z,4.83
2023-02-05T04:57:01.593Z,5.40
2023-02-05T04:59:33.735Z,5.28
2023-02-05T05:02:06.178Z,5.20
2023-02-05T05:04:40.651Z,5.00
2023-02-05T05:07:13.298Z,5.00
2023-02-05T05:09:45.511Z,4.65
2023-02-05T05:12:17.532Z,5.28
2023-02-05T05:14:49.623Z,5.10
2023-02-05T05:17:21.870Z,5.08
2023-02-05T05:19:56.828Z,5.30
2023-02-05T05:22:29.138Z,5.65
2023-02-05T05:25:01.613Z,5.30
2023-02-05T05:27:33.788Z,6.37
2023-02-05T05:30:06.566Z,5.50
2023-02-05T05:32:38.685Z,7.25
2023-02-05T05:35:11.107Z,5.75
2023-02-05T05:37:43.596Z,5.60
2023-02-05T05:40:33.639Z,5.58
2023-02-05T05:43:23.729Z,5.17
2023-02-05T05:45:56.176Z,4.80
2023-02-05T05:48:29.100Z,4.50
2023-02-05T05:51:01.386Z,6.17
2023-02-05T05:53:34.113Z,6.22
2023-02-05T05:56:06.501Z,5.30
2023-02-05T05:58:38.759Z,4.92
2023-02-05T06:01:11.967Z,5.33
2023-02-05T06:03:44.148Z,5.92
2023-02-05T06:06:16.359Z,6.22
2023-02-05T06:08:48.475Z,5.67
2023-02-05T06:11:20.772Z,7.08
2023-02-05T06:13:54.660Z,5.75
2023-02-05T06:16:26.797Z,5.00
2023-02-05T06:18:59.242Z,5.22
2023-02-05T06:21:31.533Z,4.10
2023-02-05T06:24:04.003Z,5.47
2023-02-05T06:26:36.686Z,4.70
2023-02-05T06:29:08.796Z,4.97
2023-02-05T06:31:41.087Z,4.83
2023-02-05T06:34:13.644Z,4.83
2023-02-05T06:36:45.917Z,5.30
2023-02-05T06:39:17.936Z,4.70
2023-02-05T06:41:50.462Z,5.53
2023-02-05T06:44:22.933Z,6.55
2023-02-05T06:46:55.420Z,6.10
2023-02-05T06:49:28.489Z,6.50
2023-02-05T06:52:01.251Z,5.37
2023-02-05T06:54:33.552Z,5.80
2023-02-05T06:57:06.530Z,3.98
2023-02-05T06:59:39.223Z,6.42
2023-02-05T07:02:14.796Z,5.53
2023-02-05T07:04:47.244Z,6.80
2023-02-05T07:07:19.175Z,5.75
2023-02-05T07:09:51.788Z,6.10
2023-02-05T07:12:24.130Z,6.20
2023-02-05T07:14:56.101Z,5.50
2023-02-05T07:17:28.048Z,5.20
2023-02-05T07:20:00.319Z,4.83
2023-02-05T07:22:34.289Z,4.70
2023-02-05T07:25:06.445Z,4.30
2023-02-05T07:27:38.548Z,4.62
2023-02-05T07:30:11.968Z,3.95
2023-02-05T07:32:44.048Z,4.65
2023-02-05T07:35:16.216Z,4.53
2023-02-05T07:37:48.535Z,5.42
2023-02-05T07:40:21.004Z,4.58
2023-02-05T07:42:53.426Z,4.25
2023-02-05T07:45:25.634Z,4.53
2023-02-05T07:47:58.089Z,5.87
2023-02-05T07:50:30.614Z,5.03
2023-02-05T07:53:02.874Z,5.03
2023-02-05T07:55:37.798Z,4.97
2023-02-05T07:58:09.998Z,4.67
2023-02-05T08:00:42.345Z,5.12
2023-02-05T08:03:15.143Z,5.78
2023-02-05T08:05:47.313Z,5.30
2023-02-05T08:08:19.581Z,5.25
2023-02-05T08:11:00.897Z,5.55
2023-02-05T08:13:34.119Z,5.15
2023-02-05T08:16:09.747Z,6.20
2023-02-05T08:18:42.236Z,5.05
2023-02-05T08:21:14.551Z,4.70
2023-02-05T08:23:46.813Z,6.20
2023-02-05T08:26:19.814Z,5.47
2023-02-05T08:28:54.697Z,4.75
2023-02-05T08:31:27.837Z,5.53
2023-02-05T08:34:00.519Z,5.40
2023-02-05T08:36:33.295Z,5.25
2023-02-05T08:39:06.654Z,5.20
2023-02-05T08:41:39.465Z,5.17
2023-02-05T08:44:11.882Z,4.28
2023-02-05T08:46:50.207Z,4.92
2023-02-05T08:49:19.137Z,5.62
2023-02-05T08:51:52.175Z,5.83
2023-02-05T08:54:24.519Z,4.92
2023-02-05T08:56:56.916Z,5.37
2023-02-05T08:59:29.026Z,6.03
2023-02-05T09:02:01.548Z,5.47
2023-02-05T09:04:33.995Z,4.95
2023-02-05T09:07:06.525Z,4.97
2023-02-05T09:09:38.890Z,5.72
2023-02-05T09:12:14.056Z,4.95
2023-02-05T09:14:47.348Z,4.53
2023-02-05T09:17:19.772Z,4.08
2023-02-05T09:19:52.144Z,4.45
2023-02-05T09:22:24.408Z,5.30
2023-02-05T09:24:56.500Z,4.28
2023-02-05T09:27:28.897Z,3.33
2023-02-05T09:30:00.970Z,3.30
2023-02-05T09:32:34.669Z,3.92
2023-02-05T09:35:08.500Z,4.20
2023-02-05T09:37:40.737Z,3.85
2023-02-05T09:40:21.159Z,3.47
2023-02-05T09:43:11.494Z,4.20
2023-02-05T09:46:15.554Z,3.52
2023-02-05T09:48:57.178Z,3.58
2023-02-05T09:51:38.692Z,3.80
2023-02-05T09:54:26.597Z,3.22
2023-02-05T09:57:01.941Z,3.98
2023-02-05T09:59:35.524Z,3.70
2023-02-05T10:02:28.446Z,3.42
2023-02-05T10:05:01.304Z,3.35
2023-02-05T10:07:48.934Z,3.37
2023-02-05T10:10:36.501Z,3.65
2023-02-05T10:13:32.674Z,4.12
2023-02-05T10:16:28.640Z,3.67
2023-02-05T10:19:05.232Z,3.45
2023-02-05T10:21:52.533Z,3.80
2023-02-05T10:24:39.524Z,3.27
2023-02-05T10:27:17.512Z,3.50
2023-02-05T10:30:09.281Z,3.45
2023-02-05T10:32:45.002Z,3.40
2023-02-05T10:42:57.559Z,3.47
2023-02-05T10:45:31.572Z,3.85
2023-02-05T10:48:21.779Z,3.70
2023-02-05T10:51:00.048Z,4.08
2023-02-05T10:53:33.799Z,4.05
2023-02-05T10:56:07.353Z,3.80
2023-02-05T10:58:48.112Z,4.53
2023-02-05T11:01:22.884Z,4.47
2023-02-05T11:04:00.947Z,4.20
2023-02-05T11:06:36.260Z,4.58
2023-02-05T11:09:26.852Z,4.20
2023-02-05T11:12:05.433Z,3.30
2023-02-05T11:14:44.302Z,4.60
2023-02-05T11:17:20.359Z,3.92
2023-02-05T11:19:59.284Z,4.97
2023-02-05T11:22:36.376Z,3.80
2023-02-05T11:25:21.370Z,4.42
2023-02-05T11:28:05.852Z,3.92
2023-02-05T11:30:50.721Z,4.37
2023-02-05T11:33:24.855Z,4.95
2023-02-05T11:36:03.264Z,4.47
2023-02-05T11:38:46.786Z,4.62
2023-02-05T11:41:36.016Z,4.50
2023-02-05T11:44:08.437Z,4.35
2023-02-05T11:46:44.605Z,4.30
2023-02-05T11:49:23.645Z,4.33
2023-02-05T11:51:58.728Z,4.95
2023-02-05T11:54:36.891Z,4.55
2023-02-05T11:57:21.032Z,4.80
2023-02-05T12:00:16.115Z,5.12
2023-02-05T12:05:24.205Z,5.03
2023-02-05T12:08:14.809Z,5.35
2023-02-05T12:10:50.545Z,7.65
2023-02-05T12:13:37.611Z,5.28
2023-02-05T12:16:40.255Z,5.05
2023-02-05T12:19:21.599Z,5.85
2023-02-05T12:22:00.846Z,5.85
2023-02-05T12:24:59.713Z,12.98
2023-02-05T12:27:55.038Z,4.70
2023-02-05T12:31:00.249Z,4.65
2023-02-05T12:33:41.707Z,4.62
2023-02-05T12:36:40.626Z,4.65
2023-02-05T12:39:27.979Z,4.75
2023-02-05T12:42:09.748Z,4.47
2023-02-05T12:44:57.390Z,3.92
2023-02-05T12:47:53.132Z,5.17
2023-02-05T12:50:53.767Z,4.10
2023-02-05T12:53:45.177Z,5.10
2023-02-05T12:56:28.649Z,4.47
2023-02-05T12:59:13.888Z,4.50
2023-02-05T13:04:24.970Z,4.58
2023-02-05T13:07:00.307Z,4.53
2023-02-05T13:09:37.375Z,5.30
2023-02-05T13:12:12.523Z,4.58
2023-02-05T13:14:56.902Z,4.87
2023-02-05T13:17:32.720Z,4.60
2023-02-05T13:20:08.162Z,5.03
2023-02-05T13:23:06.419Z,5.72
2023-02-05T13:25:59.155Z,5.95
2023-02-05T13:28:53.316Z,3.50
2023-02-05T13:31:31.416Z,5.97
2023-02-05T13:34:06.524Z,6.05
2023-02-05T13:36:56.573Z,6.00
2023-02-05T13:39:34.810Z,6.72
2023-02-05T13:42:24.696Z,2.95
2023-02-05T13:45:11.900Z,5.30
2023-02-05T13:47:52.915Z,4.45
2023-02-05T13:50:49.351Z,6.60
2023-02-05T13:53:34.006Z,5.35
2023-02-05T13:56:31.568Z,5.90
2023-02-05T13:59:24.426Z,6.47
2023-02-05T14:02:00.711Z,7.08
2023-02-05T14:04:45.668Z,6.10
2023-02-05T14:07:23.541Z,5.50
2023-02-05T14:10:00.583Z,7.05
2023-02-05T14:12:37.500Z,7.00
2023-02-05T14:15:19.851Z,6.70
2023-02-05T14:17:55.166Z,6.65
2023-02-05T14:20:37.032Z,7.33
2023-02-05T14:23:20.926Z,6.30
2023-02-05T14:26:09.931Z,6.12
2023-02-05T14:28:47.385Z,7.33
2023-02-05T14:31:49.006Z,7.65
2023-02-05T14:34:36.727Z,7.17
2023-02-05T14:37:13.750Z,7.12
2023-02-05T14:39:46.084Z,7.50
2023-02-05T14:42:21.473Z,6.55
2023-02-05T14:44:57.656Z,6.72
2023-02-05T14:47:33.340Z,7.25
2023-02-05T14:50:11.279Z,7.35
2023-02-05T14:52:49.291Z,6.87
2023-02-05T14:55:24.171Z,7.28
2023-02-05T14:57:59.317Z,6.60
2023-02-05T15:00:42.860Z,7.45
2023-02-05T15:03:21.973Z,6.40
2023-02-05T15:05:56.959Z,7.53
2023-02-05T15:08:38.020Z,8.03
2023-02-05T15:11:25.428Z,7.10
2023-02-05T15:14:09.248Z,7.12
2023-02-05T15:16:41.361Z,6.72
2023-02-05T15:19:16.834Z,6.45
2023-02-05T15:21:51.948Z,6.50
2023-02-05T15:24:27.023Z,6.70
2023-02-05T15:27:02.269Z,8.58
2023-02-05T15:29:43.875Z,8.45
2023-02-05T15:32:22.044Z,6.28
2023-02-05T15:35:05.621Z,6.12
2023-02-05T15:37:40.771Z,6.58
2023-02-05T15:40:15.874Z,6.95
2023-02-05T15:42:51.103Z,7.12
2023-02-05T15:45:34.236Z,6.53
2023-02-05T15:48:16.447Z,6.12
2023-02-05T15:50:58.679Z,5.90
2023-02-05T15:53:36.479Z,5.67
2023-02-05T15:56:11.607Z,6.00
2023-02-05T15:58:52.575Z,6.75
2023-02-05T16:01:27.902Z,5.22
2023-02-05T16:04:00.615Z,5.40
2023-02-05T16:06:32.728Z,5.35
2023-02-05T16:09:06.384Z,6.28
2023-02-05T16:11:40.498Z,5.35
2023-02-05T16:17:06.077Z,7.55
2023-02-05T16:19:47.219Z,5.10
2023-02-05T16:22:25.080Z,5.47
2023-02-05T16:25:01.557Z,5.80
2023-02-05T16:27:48.283Z,4.25
2023-02-05T16:30:23.156Z,4.37
2023-02-05T16:32:57.577Z,4.15
2023-02-05T16:35:32.580Z,5.45
2023-02-05T16:38:06.913Z,5.00
2023-02-05T16:40:43.173Z,5.25
2023-02-05T16:43:33.088Z,5.53
2023-02-05T16:46:08.232Z,5.45
2023-02-05T16:48:49.051Z,5.35
2023-02-05T16:51:37.162Z,4.85
2023-02-05T16:54:14.932Z,4.85
2023-02-05T16:56:55.703Z,5.00
2023-02-05T16:59:33.825Z,5.37
2023-02-05T17:02:06.287Z,6.30
2023-02-05T17:04:40.168Z,5.40
2023-02-05T17:07:21.558Z,5.78
2023-02-05T17:09:53.773Z,6.05
2023-02-05T17:12:40.985Z,4.78
2023-02-05T17:15:19.302Z,5.15
2023-02-05T17:17:56.068Z,6.42
2023-02-05T17:20:29.466Z,5.85
2023-02-05T17:23:09.575Z,6.53
2023-02-05T17:25:55.063Z,5.87
2023-02-05T17:28:29.942Z,6.70
2023-02-05T17:31:02.672Z,5.22
2023-02-05T17:33:35.013Z,4.87
2023-02-05T17:36:09.011Z,6.90
2023-02-05T17:41:49.244Z,4.70
2023-02-05T17:44:24.221Z,5.10
2023-02-05T17:46:58.641Z,5.28
2023-02-05T17:49:31.288Z,6.15
2023-02-05T17:52:03.400Z,6.53
2023-02-05T17:54:36.725Z,6.28
2023-02-05T17:57:17.275Z,6.17
2023-02-05T17:59:49.619Z,5.97
2023-02-05T18:02:21.818Z,4.83
2023-02-05T18:04:54.319Z,6.42
2023-02-05T18:07:38.168Z,7.62
2023-02-05T18:10:13.224Z,5.72
2023-02-05T18:12:45.496Z,5.28
2023-02-05T18:15:18.546Z,7.25
2023-02-05T18:17:50.999Z,6.62
2023-02-05T18:20:23.613Z,7.40
2023-02-05T18:22:56.123Z,7.28
2023-02-05T18:25:28.533Z,7.67
2023-02-05T18:28:00.963Z,7.78
2023-02-05T18:30:33.330Z,7.62
2023-02-05T18:33:07.363Z,7.72
2023-02-05T18:35:39.842Z,7.00
2023-02-05T18:38:11.886Z,7.35
2023-02-05T18:40:43.917Z,7.30
2023-02-05T18:43:15.978Z,6.95
2023-02-05T18:45:48.112Z,7.25
2023-02-05T18:48:20.494Z,7.35
2023-02-05T18:50:52.720Z,6.53
2023-02-05T18:53:26.560Z,6.40
2023-02-05T18:56:03.942Z,6.28
2023-02-05T18:58:36.763Z,6.30
2023-02-05T19:01:16.873Z,7.08
2023-02-05T19:03:49.676Z,7.10
2023-02-05T19:06:23.824Z,5.97
2023-02-05T19:08:58.248Z,6.83
2023-02-05T19:11:31.393Z,6.30
2023-02-05T19:14:05.976Z,5.10
2023-02-05T19:16:39.639Z,5.40
2023-02-05T19:19:14.689Z,5.25
2023-02-05T19:21:48.568Z,5.97
2023-02-05T19:24:21.741Z,5.50
2023-02-05T19:26:57.964Z,5.62
2023-02-05T19:29:30.667Z,6.10
2023-02-05T19:32:04.400Z,6.22
2023-02-05T19:34:38.662Z,6.15
2023-02-05T19:37:12.345Z,7.12
2023-02-05T19:42:16.218Z,5.95
2023-02-05T19:44:48.422Z,6.58
2023-02-05T19:47:21.850Z,6.53
2023-02-05T19:49:54.234Z,5.85
2023-02-05T19:52:26.505Z,6.97
2023-02-05T19:54:58.769Z,6.80
2023-02-05T19:57:32.347Z,6.72
2023-02-05T20:00:04.667Z,6.58
2023-02-05T20:02:39.080Z,3.50
2023-02-05T20:05:11.183Z,5.97
2023-02-05T20:07:43.405Z,6.35
2023-02-05T20:10:16.085Z,5.83
2023-02-05T20:12:49.976Z,5.30
2023-02-05T20:15:22.405Z,5.87
2023-02-05T20:17:56.569Z,6.67
2023-02-05T20:20:44.767Z,5.95
2023-02-05T20:23:02.689Z,5.75
2023-02-05T20:25:34.857Z,6.22
2023-02-05T20:28:07.160Z,4.70
2023-02-05T20:31:00.384Z,5.30
2023-02-05T20:33:32.626Z,5.25
2023-02-05T20:36:10.202Z,4.75
2023-02-05T20:38:42.793Z,4.53
2023-02-05T20:41:17.242Z,3.98
2023-02-05T20:43:49.586Z,4.55
2023-02-05T20:46:22.850Z,3.05
2023-02-05T20:48:55.015Z,4.67
2023-02-05T20:51:27.211Z,3.95
2023-02-05T20:54:00.390Z,3.80
2023-02-05T20:56:33.133Z,4.77
2023-02-05T20:59:07.162Z,4.70
2023-02-05T21:01:41.180Z,4.53
2023-02-05T21:04:13.554Z,4.35
2023-02-05T21:06:45.778Z,4.53
2023-02-05T21:09:18.153Z,4.37
2023-02-05T21:11:51.139Z,4.50
2023-02-05T21:14:23.407Z,3.90
2023-02-05T21:16:55.475Z,4.53
2023-02-05T21:19:27.391Z,4.05
2023-02-05T21:21:59.543Z,4.42
2023-02-05T21:24:31.770Z,3.42
2023-02-05T21:27:03.847Z,4.62
2023-02-05T21:29:35.956Z,4.53
2023-02-05T21:32:08.335Z,4.97
2023-02-05T21:34:40.372Z,4.75
2023-02-05T21:37:15.171Z,4.28
2023-02-05T21:39:48.069Z,4.30
2023-02-05T21:42:20.562Z,4.05
2023-02-05T21:44:54.233Z,4.75
2023-02-05T21:47:26.386Z,3.92
2023-02-05T21:49:58.347Z,4.60
2023-02-05T21:52:30.361Z,3.87
2023-02-05T21:55:02.812Z,5.20
2023-02-05T21:57:34.902Z,4.17
2023-02-05T22:00:07.155Z,4.33
2023-02-05T22:02:41.131Z,4.90
2023-02-05T22:05:13.142Z,3.65
2023-02-05T22:07:45.337Z,4.00
2023-02-05T22:10:17.699Z,4.08
2023-02-05T22:12:49.656Z,4.67
2023-02-05T22:15:21.714Z,5.17
2023-02-05T22:17:53.594Z,4.40
2023-02-05T22:20:25.734Z,5.08
2023-02-05T22:22:59.647Z,5.72
2023-02-05T22:25:32.396Z,5.40
2023-02-05T22:28:04.702Z,5.58
2023-02-05T22:30:36.932Z,5.03
2023-02-05T22:33:09.010Z,5.10
2023-02-05T22:35:41.406Z,4.62
2023-02-05T22:38:14.087Z,4.85
2023-02-05T22:40:46.273Z,4.90
2023-02-05T22:43:18.300Z,4.75
2023-02-05T22:45:50.422Z,4.15
2023-02-05T22:48:22.895Z,4.72
2023-02-05T22:50:55.087Z,4.67
2023-02-05T22:53:27.251Z,5.10
2023-02-05T22:56:05.149Z,5.30
2023-02-05T22:58:43.034Z,5.40
2023-02-05T23:01:21.176Z,5.05
2023-02-05T23:03:53.946Z,5.25
2023-02-05T23:06:29.115Z,4.75
2023-02-05T23:09:03.917Z,3.65
2023-02-05T23:11:36.532Z,4.83
2023-02-05T23:14:08.992Z,4.53
2023-02-05T23:16:44.076Z,4.50
2023-02-05T23:19:19.173Z,5.30
2023-02-05T23:21:51.924Z,3.98
2023-02-05T23:24:23.953Z,4.60
2023-02-05T23:26:56.008Z,3.65
2023-02-05T23:29:28.494Z,4.00
2023-02-05T23:32:00.748Z,5.08
2023-02-05T23:34:32.689Z,3.60
2023-02-05T23:37:04.775Z,5.12
2023-02-05T23:39:36.743Z,5.20
2023-02-05T23:42:10.526Z,5.10
2023-02-05T23:47:13.950Z,4.10
2023-02-05T23:49:45.956Z,4.83
2023-02-05T23:52:17.968Z,4.00
2023-02-05T23:54:49.968Z,4.10
2023-02-05T23:57:22.024Z,4.60
2023-02-05T23:59:54.054Z,4.08
